Columbus Air Force Base
KCBM : now visible

Airfield :











YOU CAN JOIN US ON...

 
LOGIN :

Register | Disclaimer

   EN    FR    IT 

 









Legend :    VFR   Marginal VFR   IFR   Intensive IFR   Very Intensive IFR
Visi :
Ceiling :
>= 8 km
>= 3000ft
5 to 8 km
1000 to 3000 ft
1500m to 5 km
500 to 1000 ft
800 to 1500m
200 to 500 ft
< 800m
< 200 ft
Symbols :   Thunderstorms  Fog  Heavy snow  Heavy precipitations  Wind > 20 kt






- Airport Elevation : 219 ft


KCBM - Columbus Air Force Base

CURRENT METAR :
  • 160956Z AUTO 00000KT 10SM SCT190 11/06 A2994 RMK AO2 SLP140 T01080064 $

EXPIRED METARs :
  • 160856Z AUTO 00000KT 10SM OVC170 12/06 A2993 RMK AO2 SLP137 T01170060 55001 $
  • 160756Z AUTO 00000KT 10SM BKN170 12/07 A2993 RMK AO2 SLP137 T01190068 $

TAF TAF KCBM
Valid from the 16 at 09:00 until the 17 at 15:00 UTC


160900Z 1609/1715 02005KT 9999 OVC100 QNH2980INS
BECMG 1611/1612 07005KT 9999 BKN060 QNH2975INS
BECMG 1700/1701 05005KT 9999 VCSH SCT025 BKN050 QNH2975INS
BECMG 1702/1703 04005KT 9000 -SHRA BKN025 OVC030 QNH2975INS
BECMG 1709/1710 36008KT 4800 -RA BKN020 OVC030 QNH2975INS TX19/1620Z TN11/1609Z
KZME FIR / North America



MET'MAP, your aeronautical weather chart ! - Copyright ORBIFLY December 2007 - Disclaimer

ORBIFLY MET'MAP TEAM :

Programming & Development : Alexandra Zaïnal
Concept & original design : Baudouin d'Aumeries
Assistance for programming : Marc-Olivier Méhu
Technical & hardware support : Manuel Goepfert

Contact : metmap@orbifly.com




SOURCES & CREDITS :

   NOAA       Earth
Advisory